sensor_id;sensor_type;location;lat;lon;timestamp;P1;durP1;ratioP1;P2;durP2;ratioP2
48813;SDS011;34634;44.108;3.074;2022-12-01T00:02:17;122.70;;;33.25;;
48813;SDS011;34634;44.108;3.074;2022-12-01T00:04:43;161.18;;;35.50;;
48813;SDS011;34634;44.108;3.074;2022-12-01T00:07:10;156.77;;;39.05;;
48813;SDS011;34634;44.108;3.074;2022-12-01T00:09:36;171.23;;;33.25;;
48813;SDS011;34634;44.108;3.074;2022-12-01T00:12:21;111.25;;;30.30;;
48813;SDS011;34634;44.108;3.074;2022-12-01T00:14:47;95.88;;;30.15;;
48813;SDS011;34634;44.108;3.074;2022-12-01T00:17:19;86.68;;;29.75;;
48813;SDS011;34634;44.108;3.074;2022-12-01T00:19:46;93.78;;;30.42;;
48813;SDS011;34634;44.108;3.074;2022-12-01T00:22:12;103.63;;;30.25;;
48813;SDS011;34634;44.108;3.074;2022-12-01T00:24:38;150.10;;;30.58;;
48813;SDS011;34634;44.108;3.074;2022-12-01T00:27:05;109.45;;;29.45;;
48813;SDS011;34634;44.108;3.074;2022-12-01T00:29:31;98.13;;;28.85;;
48813;SDS011;34634;44.108;3.074;2022-12-01T00:31:57;110.47;;;34.60;;
48813;SDS011;34634;44.108;3.074;2022-12-01T00:34:24;134.70;;;36.70;;
48813;SDS011;34634;44.108;3.074;2022-12-01T00:36:50;109.82;;;32.65;;
48813;SDS011;34634;44.108;3.074;2022-12-01T00:39:16;93.68;;;32.00;;
48813;SDS011;34634;44.108;3.074;2022-12-01T00:41:43;138.23;;;32.17;;
48813;SDS011;34634;44.108;3.074;2022-12-01T00:44:09;86.50;;;32.85;;
48813;SDS011;34634;44.108;3.074;2022-12-01T00:46:35;78.97;;;31.45;;
48813;SDS011;34634;44.108;3.074;2022-12-01T00:49:02;90.70;;;31.30;;
48813;SDS011;34634;44.108;3.074;2022-12-01T00:51:28;89.07;;;30.25;;
48813;SDS011;34634;44.108;3.074;2022-12-01T00:53:55;97.28;;;33.03;;
48813;SDS011;34634;44.108;3.074;2022-12-01T00:56:21;97.18;;;31.05;;
48813;SDS011;34634;44.108;3.074;2022-12-01T00:58:48;75.57;;;28.98;;
48813;SDS011;34634;44.108;3.074;2022-12-01T01:01:14;89.10;;;29.30;;
48813;SDS011;34634;44.108;3.074;2022-12-01T01:03:40;78.10;;;28.67;;
48813;SDS011;34634;44.108;3.074;2022-12-01T01:06:07;102.03;;;30.75;;
48813;SDS011;34634;44.108;3.074;2022-12-01T01:08:34;95.78;;;30.58;;
48813;SDS011;34634;44.108;3.074;2022-12-01T01:11:00;98.47;;;30.77;;
48813;SDS011;34634;44.108;3.074;2022-12-01T01:13:27;79.53;;;28.63;;
48813;SDS011;34634;44.108;3.074;2022-12-01T01:16:04;92.85;;;29.65;;
48813;SDS011;34634;44.108;3.074;2022-12-01T01:18:31;89.35;;;27.85;;
48813;SDS011;34634;44.108;3.074;2022-12-01T01:21:04;67.35;;;26.88;;
48813;SDS011;34634;44.108;3.074;2022-12-01T01:23:31;57.60;;;26.55;;
48813;SDS011;34634;44.108;3.074;2022-12-01T01:26:05;151.32;;;32.58;;
48813;SDS011;34634;44.108;3.074;2022-12-01T01:28:31;118.53;;;29.58;;
48813;SDS011;34634;44.108;3.074;2022-12-01T01:30:57;104.57;;;32.55;;
48813;SDS011;34634;44.108;3.074;2022-12-01T01:33:24;80.32;;;30.58;;
48813;SDS011;34634;44.108;3.074;2022-12-01T01:35:50;66.43;;;27.98;;
48813;SDS011;34634;44.108;3.074;2022-12-01T01:38:16;92.10;;;29.25;;
48813;SDS011;34634;44.108;3.074;2022-12-01T01:40:46;104.40;;;31.65;;
48813;SDS011;34634;44.108;3.074;2022-12-01T01:43:16;81.93;;;28.05;;
48813;SDS011;34634;44.108;3.074;2022-12-01T01:48:10;71.90;;;25.85;;
48813;SDS011;34634;44.108;3.074;2022-12-01T01:50:38;80.95;;;27.48;;
48813;SDS011;34634;44.108;3.074;2022-12-01T01:53:06;90.88;;;29.63;;
48813;SDS011;34634;44.108;3.074;2022-12-01T01:55:33;64.82;;;27.25;;
48813;SDS011;34634;44.108;3.074;2022-12-01T01:58:01;66.78;;;26.30;;
48813;SDS011;34634;44.108;3.074;2022-12-01T02:00:29;93.07;;;26.65;;
48813;SDS011;34634;44.108;3.074;2022-12-01T02:02:56;94.38;;;26.27;;
48813;SDS011;34634;44.108;3.074;2022-12-01T02:05:24;69.38;;;27.27;;
48813;SDS011;34634;44.108;3.074;2022-12-01T02:07:52;66.18;;;25.98;;
48813;SDS011;34634;44.108;3.074;2022-12-01T02:10:20;51.13;;;22.83;;
48813;SDS011;34634;44.108;3.074;2022-12-01T02:18:17;50.58;;;21.60;;
48813;SDS011;34634;44.108;3.074;2022-12-01T02:33:54;97.72;;;23.40;;
48813;SDS011;34634;44.108;3.074;2022-12-01T02:36:31;82.35;;;22.48;;
48813;SDS011;34634;44.108;3.074;2022-12-01T02:39:43;70.55;;;22.27;;
48813;SDS011;34634;44.108;3.074;2022-12-01T02:41:49;42.55;;;20.65;;
48813;SDS011;34634;44.108;3.074;2022-12-01T02:44:21;87.50;;;22.15;;
48813;SDS011;34634;44.108;3.074;2022-12-01T02:49:19;69.25;;;22.55;;
48813;SDS011;34634;44.108;3.074;2022-12-01T02:51:47;60.03;;;22.05;;
48813;SDS011;34634;44.108;3.074;2022-12-01T02:54:15;113.97;;;19.05;;
48813;SDS011;34634;44.108;3.074;2022-12-01T02:56:45;63.45;;;18.23;;
48813;SDS011;34634;44.108;3.074;2022-12-01T02:59:13;46.95;;;16.73;;
48813;SDS011;34634;44.108;3.074;2022-12-01T03:17:16;34.25;;;16.70;;
48813;SDS011;34634;44.108;3.074;2022-12-01T03:19:45;38.28;;;17.45;;
48813;SDS011;34634;44.108;3.074;2022-12-01T03:22:13;93.63;;;18.42;;
48813;SDS011;34634;44.108;3.074;2022-12-01T03:24:42;43.55;;;16.80;;
48813;SDS011;34634;44.108;3.074;2022-12-01T03:27:11;50.03;;;17.08;;
48813;SDS011;34634;44.108;3.074;2022-12-01T03:29:39;80.75;;;18.20;;
48813;SDS011;34634;44.108;3.074;2022-12-01T03:32:17;43.78;;;16.67;;
48813;SDS011;34634;44.108;3.074;2022-12-01T03:37:17;61.78;;;17.13;;
48813;SDS011;34634;44.108;3.074;2022-12-01T03:39:46;51.30;;;17.02;;
48813;SDS011;34634;44.108;3.074;2022-12-01T03:42:14;65.80;;;17.40;;
48813;SDS011;34634;44.108;3.074;2022-12-01T03:44:48;54.72;;;16.67;;
48813;SDS011;34634;44.108;3.074;2022-12-01T03:47:20;63.92;;;15.57;;
48813;SDS011;34634;44.108;3.074;2022-12-01T03:49:48;42.10;;;15.90;;
48813;SDS011;34634;44.108;3.074;2022-12-01T03:52:27;30.08;;;14.27;;
48813;SDS011;34634;44.108;3.074;2022-12-01T03:55:56;32.95;;;13.40;;
48813;SDS011;34634;44.108;3.074;2022-12-01T03:58:04;25.65;;;13.15;;
48813;SDS011;34634;44.108;3.074;2022-12-01T04:00:32;31.58;;;13.95;;
48813;SDS011;34634;44.108;3.074;2022-12-01T04:02:59;26.25;;;14.18;;
48813;SDS011;34634;44.108;3.074;2022-12-01T04:05:29;31.67;;;14.67;;
48813;SDS011;34634;44.108;3.074;2022-12-01T04:07:57;72.22;;;15.90;;
48813;SDS011;34634;44.108;3.074;2022-12-01T04:10:23;67.65;;;15.68;;
48813;SDS011;34634;44.108;3.074;2022-12-01T04:12:49;74.30;;;16.15;;
48813;SDS011;34634;44.108;3.074;2022-12-01T04:15:23;81.80;;;17.02;;
48813;SDS011;34634;44.108;3.074;2022-12-01T04:17:49;48.80;;;16.08;;
48813;SDS011;34634;44.108;3.074;2022-12-01T04:20:16;36.42;;;14.85;;
48813;SDS011;34634;44.108;3.074;2022-12-01T04:22:42;28.13;;;14.88;;
48813;SDS011;34634;44.108;3.074;2022-12-01T04:25:09;53.95;;;15.55;;
48813;SDS011;34634;44.108;3.074;2022-12-01T04:27:35;28.35;;;15.20;;
48813;SDS011;34634;44.108;3.074;2022-12-01T04:30:02;31.40;;;15.05;;
48813;SDS011;34634;44.108;3.074;2022-12-01T04:32:29;46.05;;;16.25;;
48813;SDS011;34634;44.108;3.074;2022-12-01T04:34:55;26.30;;;13.50;;
48813;SDS011;34634;44.108;3.074;2022-12-01T04:37:22;37.40;;;13.80;;
48813;SDS011;34634;44.108;3.074;2022-12-01T04:39:48;28.08;;;12.90;;
48813;SDS011;34634;44.108;3.074;2022-12-01T04:42:14;31.27;;;15.07;;
48813;SDS011;34634;44.108;3.074;2022-12-01T04:44:41;35.50;;;15.57;;
48813;SDS011;34634;44.108;3.074;2022-12-01T04:47:07;19.73;;;12.57;;
48813;SDS011;34634;44.108;3.074;2022-12-01T04:49:33;43.03;;;16.20;;
48813;SDS011;34634;44.108;3.074;2022-12-01T04:52:01;77.07;;;16.63;;
48813;SDS011;34634;44.108;3.074;2022-12-01T04:54:27;45.33;;;14.30;;
48813;SDS011;34634;44.108;3.074;2022-12-01T04:56:54;46.38;;;17.58;;
48813;SDS011;34634;44.108;3.074;2022-12-01T04:59:20;27.83;;;15.80;;
48813;SDS011;34634;44.108;3.074;2022-12-01T05:01:46;31.55;;;13.73;;
48813;SDS011;34634;44.108;3.074;2022-12-01T05:04:13;26.45;;;14.90;;
48813;SDS011;34634;44.108;3.074;2022-12-01T05:06:40;35.63;;;14.60;;
48813;SDS011;34634;44.108;3.074;2022-12-01T05:09:06;44.80;;;24.25;;
48813;SDS011;34634;44.108;3.074;2022-12-01T05:11:33;26.92;;;15.50;;
48813;SDS011;34634;44.108;3.074;2022-12-01T05:13:59;33.30;;;14.63;;
48813;SDS011;34634;44.108;3.074;2022-12-01T05:16:27;36.95;;;14.10;;
48813;SDS011;34634;44.108;3.074;2022-12-01T05:18:58;26.58;;;14.23;;
48813;SDS011;34634;44.108;3.074;2022-12-01T05:22:03;26.67;;;14.13;;
48813;SDS011;34634;44.108;3.074;2022-12-01T05:24:30;29.88;;;14.77;;
48813;SDS011;34634;44.108;3.074;2022-12-01T05:26:56;36.20;;;14.95;;
48813;SDS011;34634;44.108;3.074;2022-12-01T05:29:22;25.10;;;13.18;;
48813;SDS011;34634;44.108;3.074;2022-12-01T05:31:49;27.85;;;15.43;;
48813;SDS011;34634;44.108;3.074;2022-12-01T05:34:15;33.58;;;16.40;;
48813;SDS011;34634;44.108;3.074;2022-12-01T05:36:41;31.35;;;16.48;;
48813;SDS011;34634;44.108;3.074;2022-12-01T05:39:08;32.42;;;19.65;;
48813;SDS011;34634;44.108;3.074;2022-12-01T05:41:34;26.42;;;15.07;;
48813;SDS011;34634;44.108;3.074;2022-12-01T05:44:00;27.33;;;15.05;;
48813;SDS011;34634;44.108;3.074;2022-12-01T05:46:27;27.92;;;14.90;;
48813;SDS011;34634;44.108;3.074;2022-12-01T05:48:53;25.50;;;13.65;;
48813;SDS011;34634;44.108;3.074;2022-12-01T05:51:19;33.63;;;14.85;;
48813;SDS011;34634;44.108;3.074;2022-12-01T05:53:46;29.27;;;14.68;;
48813;SDS011;34634;44.108;3.074;2022-12-01T05:56:12;34.92;;;16.23;;
48813;SDS011;34634;44.108;3.074;2022-12-01T05:58:38;31.42;;;16.23;;
48813;SDS011;34634;44.108;3.074;2022-12-01T06:01:05;30.40;;;14.90;;
48813;SDS011;34634;44.108;3.074;2022-12-01T06:03:31;30.35;;;15.88;;
48813;SDS011;34634;44.108;3.074;2022-12-01T06:05:58;32.05;;;16.52;;
48813;SDS011;34634;44.108;3.074;2022-12-01T06:08:24;29.40;;;15.63;;
48813;SDS011;34634;44.108;3.074;2022-12-01T06:10:50;29.48;;;16.52;;
48813;SDS011;34634;44.108;3.074;2022-12-01T06:13:16;38.00;;;16.08;;
48813;SDS011;34634;44.108;3.074;2022-12-01T06:15:43;38.22;;;17.60;;
48813;SDS011;34634;44.108;3.074;2022-12-01T06:18:09;38.42;;;16.98;;
48813;SDS011;34634;44.108;3.074;2022-12-01T06:20:35;25.10;;;15.18;;
48813;SDS011;34634;44.108;3.074;2022-12-01T06:23:02;38.20;;;16.38;;
48813;SDS011;34634;44.108;3.074;2022-12-01T06:25:28;39.30;;;17.10;;
48813;SDS011;34634;44.108;3.074;2022-12-01T06:27:55;30.75;;;15.90;;
48813;SDS011;34634;44.108;3.074;2022-12-01T06:30:22;29.77;;;15.55;;
48813;SDS011;34634;44.108;3.074;2022-12-01T06:32:48;27.73;;;16.23;;
48813;SDS011;34634;44.108;3.074;2022-12-01T06:35:15;23.85;;;13.63;;
48813;SDS011;34634;44.108;3.074;2022-12-01T06:37:41;24.67;;;14.90;;
48813;SDS011;34634;44.108;3.074;2022-12-01T06:40:07;22.80;;;13.85;;
48813;SDS011;34634;44.108;3.074;2022-12-01T06:42:34;24.92;;;14.40;;
48813;SDS011;34634;44.108;3.074;2022-12-01T06:45:00;20.77;;;12.68;;
48813;SDS011;34634;44.108;3.074;2022-12-01T06:47:27;17.50;;;11.63;;
48813;SDS011;34634;44.108;3.074;2022-12-01T06:49:53;19.65;;;11.45;;
48813;SDS011;34634;44.108;3.074;2022-12-01T06:52:19;21.52;;;12.00;;
48813;SDS011;34634;44.108;3.074;2022-12-01T06:54:45;23.48;;;13.45;;
48813;SDS011;34634;44.108;3.074;2022-12-01T06:57:12;23.13;;;13.95;;
48813;SDS011;34634;44.108;3.074;2022-12-01T06:59:38;20.33;;;12.45;;
48813;SDS011;34634;44.108;3.074;2022-12-01T07:02:05;20.13;;;11.35;;
48813;SDS011;34634;44.108;3.074;2022-12-01T07:04:31;23.58;;;13.85;;
48813;SDS011;34634;44.108;3.074;2022-12-01T07:06:57;31.17;;;14.63;;
48813;SDS011;34634;44.108;3.074;2022-12-01T07:09:24;28.45;;;14.48;;
48813;SDS011;34634;44.108;3.074;2022-12-01T07:11:50;26.75;;;13.77;;
48813;SDS011;34634;44.108;3.074;2022-12-01T07:14:19;21.67;;;12.90;;
48813;SDS011;34634;44.108;3.074;2022-12-01T07:16:47;25.05;;;13.57;;
48813;SDS011;34634;44.108;3.074;2022-12-01T07:19:13;16.88;;;10.30;;
48813;SDS011;34634;44.108;3.074;2022-12-01T07:21:39;16.30;;;9.95;;
48813;SDS011;34634;44.108;3.074;2022-12-01T07:24:06;19.08;;;9.68;;
48813;SDS011;34634;44.108;3.074;2022-12-01T07:26:32;16.20;;;9.95;;
48813;SDS011;34634;44.108;3.074;2022-12-01T07:28:59;17.40;;;11.20;;
48813;SDS011;34634;44.108;3.074;2022-12-01T07:31:25;20.00;;;10.65;;
48813;SDS011;34634;44.108;3.074;2022-12-01T07:33:51;19.45;;;12.48;;
48813;SDS011;34634;44.108;3.074;2022-12-01T07:36:18;21.17;;;11.93;;
48813;SDS011;34634;44.108;3.074;2022-12-01T07:38:44;15.00;;;9.30;;
48813;SDS011;34634;44.108;3.074;2022-12-01T07:41:11;14.52;;;9.25;;
48813;SDS011;34634;44.108;3.074;2022-12-01T07:43:38;14.82;;;10.52;;
48813;SDS011;34634;44.108;3.074;2022-12-01T07:48:34;17.35;;;11.75;;
48813;SDS011;34634;44.108;3.074;2022-12-01T07:51:01;14.65;;;10.32;;
48813;SDS011;34634;44.108;3.074;2022-12-01T07:53:28;15.75;;;10.35;;
48813;SDS011;34634;44.108;3.074;2022-12-01T07:55:55;15.80;;;10.35;;
48813;SDS011;34634;44.108;3.074;2022-12-01T07:58:21;16.25;;;11.15;;
48813;SDS011;34634;44.108;3.074;2022-12-01T08:00:48;21.45;;;13.05;;
48813;SDS011;34634;44.108;3.074;2022-12-01T08:03:14;19.65;;;12.20;;
48813;SDS011;34634;44.108;3.074;2022-12-01T08:05:40;17.92;;;11.52;;
48813;SDS011;34634;44.108;3.074;2022-12-01T08:08:06;15.15;;;10.43;;
48813;SDS011;34634;44.108;3.074;2022-12-01T08:10:33;18.30;;;11.25;;
48813;SDS011;34634;44.108;3.074;2022-12-01T08:12:59;16.38;;;9.85;;
48813;SDS011;34634;44.108;3.074;2022-12-01T08:15:26;14.63;;;10.27;;
48813;SDS011;34634;44.108;3.074;2022-12-01T08:17:52;15.57;;;10.88;;
48813;SDS011;34634;44.108;3.074;2022-12-01T08:20:18;16.45;;;11.52;;
48813;SDS011;34634;44.108;3.074;2022-12-01T08:22:46;14.85;;;10.18;;
48813;SDS011;34634;44.108;3.074;2022-12-01T08:25:12;14.82;;;10.48;;
48813;SDS011;34634;44.108;3.074;2022-12-01T08:27:38;15.18;;;10.13;;
48813;SDS011;34634;44.108;3.074;2022-12-01T08:30:05;14.68;;;9.65;;
48813;SDS011;34634;44.108;3.074;2022-12-01T08:32:31;13.30;;;9.65;;
48813;SDS011;34634;44.108;3.074;2022-12-01T08:34:58;14.68;;;10.23;;
48813;SDS011;34634;44.108;3.074;2022-12-01T08:37:24;13.18;;;8.88;;
48813;SDS011;34634;44.108;3.074;2022-12-01T08:39:51;12.73;;;8.52;;
48813;SDS011;34634;44.108;3.074;2022-12-01T08:42:17;13.13;;;8.95;;
48813;SDS011;34634;44.108;3.074;2022-12-01T08:44:43;12.30;;;7.93;;
48813;SDS011;34634;44.108;3.074;2022-12-01T08:47:10;11.93;;;8.48;;
48813;SDS011;34634;44.108;3.074;2022-12-01T08:49:36;15.05;;;9.07;;
48813;SDS011;34634;44.108;3.074;2022-12-01T08:52:02;12.10;;;7.93;;
48813;SDS011;34634;44.108;3.074;2022-12-01T08:54:29;13.02;;;9.25;;
48813;SDS011;34634;44.108;3.074;2022-12-01T08:56:55;13.13;;;9.35;;
48813;SDS011;34634;44.108;3.074;2022-12-01T08:59:21;15.48;;;9.85;;
48813;SDS011;34634;44.108;3.074;2022-12-01T09:01:48;16.30;;;11.13;;
48813;SDS011;34634;44.108;3.074;2022-12-01T09:04:22;14.73;;;11.05;;
48813;SDS011;34634;44.108;3.074;2022-12-01T09:06:49;20.80;;;13.10;;
48813;SDS011;34634;44.108;3.074;2022-12-01T09:09:17;21.92;;;14.43;;
48813;SDS011;34634;44.108;3.074;2022-12-01T09:11:44;19.30;;;12.90;;
48813;SDS011;34634;44.108;3.074;2022-12-01T09:14:11;17.88;;;11.85;;
48813;SDS011;34634;44.108;3.074;2022-12-01T09:16:38;14.43;;;11.15;;
48813;SDS011;34634;44.108;3.074;2022-12-01T09:19:04;17.35;;;11.38;;
48813;SDS011;34634;44.108;3.074;2022-12-01T09:21:32;18.83;;;12.27;;
48813;SDS011;34634;44.108;3.074;2022-12-01T09:23:58;19.55;;;11.98;;
48813;SDS011;34634;44.108;3.074;2022-12-01T09:26:25;16.50;;;11.93;;
48813;SDS011;34634;44.108;3.074;2022-12-01T09:28:53;17.17;;;11.07;;
48813;SDS011;34634;44.108;3.074;2022-12-01T09:31:19;11.52;;;8.20;;
48813;SDS011;34634;44.108;3.074;2022-12-01T09:33:48;9.20;;;7.38;;
48813;SDS011;34634;44.108;3.074;2022-12-01T09:38:44;9.75;;;6.50;;
48813;SDS011;34634;44.108;3.074;2022-12-01T09:41:16;9.68;;;7.10;;
48813;SDS011;34634;44.108;3.074;2022-12-01T09:43:45;11.38;;;7.93;;
48813;SDS011;34634;44.108;3.074;2022-12-01T09:46:20;9.70;;;7.00;;
48813;SDS011;34634;44.108;3.074;2022-12-01T09:48:47;9.98;;;7.07;;
48813;SDS011;34634;44.108;3.074;2022-12-01T09:51:15;9.75;;;7.15;;
48813;SDS011;34634;44.108;3.074;2022-12-01T09:53:42;10.00;;;7.70;;
48813;SDS011;34634;44.108;3.074;2022-12-01T09:56:19;9.05;;;7.10;;
48813;SDS011;34634;44.108;3.074;2022-12-01T09:58:46;13.18;;;7.28;;
48813;SDS011;34634;44.108;3.074;2022-12-01T10:01:16;9.43;;;7.32;;
48813;SDS011;34634;44.108;3.074;2022-12-01T10:03:45;9.95;;;7.20;;
48813;SDS011;34634;44.108;3.074;2022-12-01T10:06:14;9.82;;;7.18;;
48813;SDS011;34634;44.108;3.074;2022-12-01T10:11:33;11.60;;;8.35;;
48813;SDS011;34634;44.108;3.074;2022-12-01T10:16:28;10.63;;;7.95;;
48813;SDS011;34634;44.108;3.074;2022-12-01T10:26:31;9.35;;;6.20;;
48813;SDS011;34634;44.108;3.074;2022-12-01T10:29:04;10.50;;;7.13;;
48813;SDS011;34634;44.108;3.074;2022-12-01T10:34:26;6.78;;;5.80;;
48813;SDS011;34634;44.108;3.074;2022-12-01T10:36:53;7.15;;;5.63;;
48813;SDS011;34634;44.108;3.074;2022-12-01T10:39:35;10.23;;;5.88;;
48813;SDS011;34634;44.108;3.074;2022-12-01T10:42:04;7.15;;;5.82;;
48813;SDS011;34634;44.108;3.074;2022-12-01T10:44:31;8.75;;;5.75;;
48813;SDS011;34634;44.108;3.074;2022-12-01T10:46:58;7.18;;;6.10;;
48813;SDS011;34634;44.108;3.074;2022-12-01T10:49:38;5.72;;;5.13;;
48813;SDS011;34634;44.108;3.074;2022-12-01T10:52:05;6.43;;;5.28;;
48813;SDS011;34634;44.108;3.074;2022-12-01T10:54:33;5.38;;;4.40;;
48813;SDS011;34634;44.108;3.074;2022-12-01T10:57:00;6.38;;;5.32;;
48813;SDS011;34634;44.108;3.074;2022-12-01T10:59:31;6.88;;;4.75;;
48813;SDS011;34634;44.108;3.074;2022-12-01T11:01:59;5.85;;;4.40;;
48813;SDS011;34634;44.108;3.074;2022-12-01T11:04:37;10.80;;;4.32;;
48813;SDS011;34634;44.108;3.074;2022-12-01T11:07:43;5.38;;;4.20;;
48813;SDS011;34634;44.108;3.074;2022-12-01T11:12:31;5.35;;;3.35;;
48813;SDS011;34634;44.108;3.074;2022-12-01T11:14:58;5.22;;;3.60;;
48813;SDS011;34634;44.108;3.074;2022-12-01T11:17:34;5.30;;;4.20;;
48813;SDS011;34634;44.108;3.074;2022-12-01T11:20:35;5.55;;;4.20;;
48813;SDS011;34634;44.108;3.074;2022-12-01T11:25:39;4.53;;;4.07;;
48813;SDS011;34634;44.108;3.074;2022-12-01T11:28:06;8.27;;;4.40;;
48813;SDS011;34634;44.108;3.074;2022-12-01T11:30:41;5.28;;;4.13;;
48813;SDS011;34634;44.108;3.074;2022-12-01T11:33:09;5.57;;;4.00;;
48813;SDS011;34634;44.108;3.074;2022-12-01T11:35:40;8.00;;;4.25;;
48813;SDS011;34634;44.108;3.074;2022-12-01T11:40:45;7.07;;;4.32;;
48813;SDS011;34634;44.108;3.074;2022-12-01T11:43:18;5.80;;;4.18;;
48813;SDS011;34634;44.108;3.074;2022-12-01T11:45:45;6.18;;;4.20;;
48813;SDS011;34634;44.108;3.074;2022-12-01T11:50:40;5.25;;;3.83;;
48813;SDS011;34634;44.108;3.074;2022-12-01T11:53:29;6.22;;;4.55;;
48813;SDS011;34634;44.108;3.074;2022-12-01T11:58:38;5.53;;;4.00;;
48813;SDS011;34634;44.108;3.074;2022-12-01T12:01:08;4.78;;;3.85;;
48813;SDS011;34634;44.108;3.074;2022-12-01T12:03:40;6.95;;;4.68;;
48813;SDS011;34634;44.108;3.074;2022-12-01T12:06:15;6.40;;;4.53;;
48813;SDS011;34634;44.108;3.074;2022-12-01T12:09:00;6.95;;;4.55;;
48813;SDS011;34634;44.108;3.074;2022-12-01T12:14:13;5.20;;;4.22;;
48813;SDS011;34634;44.108;3.074;2022-12-01T12:19:24;4.47;;;3.47;;
48813;SDS011;34634;44.108;3.074;2022-12-01T12:22:06;3.58;;;3.00;;
48813;SDS011;34634;44.108;3.074;2022-12-01T12:24:43;2.70;;;2.50;;
48813;SDS011;34634;44.108;3.074;2022-12-01T12:27:19;4.97;;;3.20;;
48813;SDS011;34634;44.108;3.074;2022-12-01T12:29:51;3.78;;;3.10;;
48813;SDS011;34634;44.108;3.074;2022-12-01T12:37:21;3.97;;;3.10;;
48813;SDS011;34634;44.108;3.074;2022-12-01T12:45:07;5.07;;;3.15;;
48813;SDS011;34634;44.108;3.074;2022-12-01T12:52:53;4.90;;;3.17;;
48813;SDS011;34634;44.108;3.074;2022-12-01T12:57:59;4.68;;;3.60;;
48813;SDS011;34634;44.108;3.074;2022-12-01T13:00:27;4.40;;;4.00;;
48813;SDS011;34634;44.108;3.074;2022-12-01T13:05:32;8.55;;;5.50;;
48813;SDS011;34634;44.108;3.074;2022-12-01T13:08:02;6.13;;;4.90;;
48813;SDS011;34634;44.108;3.074;2022-12-01T13:10:38;8.35;;;4.28;;
48813;SDS011;34634;44.108;3.074;2022-12-01T13:13:11;5.32;;;4.20;;
48813;SDS011;34634;44.108;3.074;2022-12-01T13:15:38;9.13;;;5.65;;
48813;SDS011;34634;44.108;3.074;2022-12-01T13:20:51;7.50;;;5.30;;
48813;SDS011;34634;44.108;3.074;2022-12-01T13:23:17;8.13;;;5.72;;
48813;SDS011;34634;44.108;3.074;2022-12-01T13:25:47;6.38;;;5.38;;
48813;SDS011;34634;44.108;3.074;2022-12-01T13:28:22;6.53;;;5.38;;
48813;SDS011;34634;44.108;3.074;2022-12-01T13:31:08;8.77;;;5.15;;
48813;SDS011;34634;44.108;3.074;2022-12-01T13:33:35;6.25;;;5.10;;
48813;SDS011;34634;44.108;3.074;2022-12-01T13:36:06;6.90;;;5.57;;
48813;SDS011;34634;44.108;3.074;2022-12-01T13:38:33;9.20;;;5.35;;
48813;SDS011;34634;44.108;3.074;2022-12-01T13:41:41;7.80;;;5.75;;
48813;SDS011;34634;44.108;3.074;2022-12-01T13:43:54;9.80;;;5.90;;
48813;SDS011;34634;44.108;3.074;2022-12-01T13:46:25;9.70;;;6.00;;
48813;SDS011;34634;44.108;3.074;2022-12-01T13:48:53;8.50;;;5.60;;
48813;SDS011;34634;44.108;3.074;2022-12-01T13:51:21;9.10;;;6.20;;
48813;SDS011;34634;44.108;3.074;2022-12-01T13:56:24;10.07;;;6.68;;
48813;SDS011;34634;44.108;3.074;2022-12-01T13:58:51;8.27;;;6.35;;
48813;SDS011;34634;44.108;3.074;2022-12-01T14:03:54;14.10;;;8.68;;
48813;SDS011;34634;44.108;3.074;2022-12-01T14:06:25;11.32;;;7.50;;
48813;SDS011;34634;44.108;3.074;2022-12-01T14:08:55;11.15;;;7.15;;
48813;SDS011;34634;44.108;3.074;2022-12-01T14:11:23;10.23;;;6.95;;
48813;SDS011;34634;44.108;3.074;2022-12-01T14:25:02;9.63;;;6.53;;
48813;SDS011;34634;44.108;3.074;2022-12-01T14:27:40;10.45;;;6.40;;
48813;SDS011;34634;44.108;3.074;2022-12-01T14:32:51;13.00;;;8.00;;
48813;SDS011;34634;44.108;3.074;2022-12-01T14:35:27;11.77;;;7.80;;
48813;SDS011;34634;44.108;3.074;2022-12-01T14:37:53;13.65;;;8.18;;
48813;SDS011;34634;44.108;3.074;2022-12-01T14:40:21;12.75;;;7.35;;
48813;SDS011;34634;44.108;3.074;2022-12-01T14:42:48;10.68;;;7.10;;
48813;SDS011;34634;44.108;3.074;2022-12-01T14:45:54;11.52;;;7.55;;
48813;SDS011;34634;44.108;3.074;2022-12-01T14:48:27;12.30;;;8.23;;
48813;SDS011;34634;44.108;3.074;2022-12-01T14:51:08;12.57;;;7.85;;
48813;SDS011;34634;44.108;3.074;2022-12-01T14:53:36;10.70;;;7.97;;
48813;SDS011;34634;44.108;3.074;2022-12-01T14:56:08;10.40;;;7.43;;
48813;SDS011;34634;44.108;3.074;2022-12-01T14:58:36;11.40;;;7.30;;
48813;SDS011;34634;44.108;3.074;2022-12-01T15:01:10;10.98;;;8.15;;
48813;SDS011;34634;44.108;3.074;2022-12-01T15:03:44;12.18;;;8.18;;
48813;SDS011;34634;44.108;3.074;2022-12-01T15:06:16;11.48;;;8.05;;
48813;SDS011;34634;44.108;3.074;2022-12-01T15:08:42;13.93;;;7.63;;
48813;SDS011;34634;44.108;3.074;2022-12-01T15:11:27;10.57;;;7.55;;
48813;SDS011;34634;44.108;3.074;2022-12-01T15:13:55;10.40;;;7.55;;
48813;SDS011;34634;44.108;3.074;2022-12-01T15:16:23;11.20;;;7.80;;
48813;SDS011;34634;44.108;3.074;2022-12-01T15:18:49;11.95;;;8.50;;
48813;SDS011;34634;44.108;3.074;2022-12-01T15:21:21;12.00;;;8.73;;
48813;SDS011;34634;44.108;3.074;2022-12-01T15:23:55;10.27;;;8.20;;
48813;SDS011;34634;44.108;3.074;2022-12-01T15:26:23;10.90;;;8.07;;
48813;SDS011;34634;44.108;3.074;2022-12-01T15:28:49;10.65;;;7.75;;
48813;SDS011;34634;44.108;3.074;2022-12-01T15:31:16;12.52;;;8.90;;
48813;SDS011;34634;44.108;3.074;2022-12-01T15:33:45;13.75;;;8.63;;
48813;SDS011;34634;44.108;3.074;2022-12-01T15:36:12;12.13;;;8.68;;
48813;SDS011;34634;44.108;3.074;2022-12-01T15:38:39;11.43;;;8.02;;
48813;SDS011;34634;44.108;3.074;2022-12-01T15:41:07;12.43;;;8.35;;
48813;SDS011;34634;44.108;3.074;2022-12-01T15:43:41;12.05;;;8.60;;
48813;SDS011;34634;44.108;3.074;2022-12-01T15:46:12;16.33;;;9.23;;
48813;SDS011;34634;44.108;3.074;2022-12-01T15:48:38;11.30;;;8.50;;
48813;SDS011;34634;44.108;3.074;2022-12-01T15:51:16;12.75;;;9.15;;
48813;SDS011;34634;44.108;3.074;2022-12-01T15:53:48;13.20;;;9.30;;
48813;SDS011;34634;44.108;3.074;2022-12-01T15:56:23;15.68;;;10.15;;
48813;SDS011;34634;44.108;3.074;2022-12-01T15:58:50;16.95;;;10.93;;
48813;SDS011;34634;44.108;3.074;2022-12-01T16:01:17;18.13;;;11.77;;
48813;SDS011;34634;44.108;3.074;2022-12-01T16:06:17;22.05;;;11.77;;
48813;SDS011;34634;44.108;3.074;2022-12-01T16:08:54;17.67;;;10.90;;
48813;SDS011;34634;44.108;3.074;2022-12-01T16:11:21;18.45;;;12.65;;
48813;SDS011;34634;44.108;3.074;2022-12-01T16:13:55;21.65;;;13.10;;
48813;SDS011;34634;44.108;3.074;2022-12-01T16:16:37;35.95;;;16.83;;
48813;SDS011;34634;44.108;3.074;2022-12-01T16:21:44;22.95;;;11.93;;
48813;SDS011;34634;44.108;3.074;2022-12-01T16:24:15;35.05;;;17.42;;
48813;SDS011;34634;44.108;3.074;2022-12-01T16:26:46;23.70;;;14.07;;
48813;SDS011;34634;44.108;3.074;2022-12-01T16:29:19;24.00;;;14.00;;
48813;SDS011;34634;44.108;3.074;2022-12-01T16:31:47;23.20;;;13.20;;
48813;SDS011;34634;44.108;3.074;2022-12-01T16:34:14;21.95;;;14.20;;
48813;SDS011;34634;44.108;3.074;2022-12-01T16:36:41;26.52;;;15.82;;
48813;SDS011;34634;44.108;3.074;2022-12-01T16:39:07;24.88;;;14.73;;
48813;SDS011;34634;44.108;3.074;2022-12-01T16:41:35;24.05;;;16.40;;
48813;SDS011;34634;44.108;3.074;2022-12-01T16:44:05;21.10;;;13.07;;
48813;SDS011;34634;44.108;3.074;2022-12-01T16:46:31;19.38;;;13.40;;
48813;SDS011;34634;44.108;3.074;2022-12-01T16:48:58;24.33;;;13.60;;